sensor_id;sensor_type;location;lat;lon;timestamp;P1;durP1;ratioP1;P2;durP2;ratioP2
75154;SDS011;63735;44.730;37.818;2023-05-10T00:01:09;8.90;;;3.60;;
75154;SDS011;63735;44.730;37.818;2023-05-10T00:03:35;7.68;;;3.05;;
75154;SDS011;63735;44.730;37.818;2023-05-10T00:06:01;9.60;;;2.95;;
75154;SDS011;63735;44.730;37.818;2023-05-10T00:08:27;6.60;;;2.92;;
75154;SDS011;63735;44.730;37.818;2023-05-10T00:10:52;7.00;;;2.97;;
75154;SDS011;63735;44.730;37.818;2023-05-10T00:13:18;5.95;;;2.42;;
75154;SDS011;63735;44.730;37.818;2023-05-10T00:15:45;5.93;;;2.30;;
75154;SDS011;63735;44.730;37.818;2023-05-10T00:18:10;4.85;;;2.00;;
75154;SDS011;63735;44.730;37.818;2023-05-10T00:20:36;5.72;;;1.63;;
75154;SDS011;63735;44.730;37.818;2023-05-10T00:23:02;5.30;;;2.00;;
75154;SDS011;63735;44.730;37.818;2023-05-10T00:25:28;3.72;;;1.58;;
75154;SDS011;63735;44.730;37.818;2023-05-10T00:27:54;2.83;;;1.20;;
75154;SDS011;63735;44.730;37.818;2023-05-10T00:30:22;5.00;;;1.80;;
75154;SDS011;63735;44.730;37.818;2023-05-10T00:32:48;3.95;;;1.20;;
75154;SDS011;63735;44.730;37.818;2023-05-10T00:35:15;1.48;;;0.70;;
75154;SDS011;63735;44.730;37.818;2023-05-10T00:37:41;1.33;;;0.60;;
75154;SDS011;63735;44.730;37.818;2023-05-10T00:40:07;2.08;;;0.65;;
75154;SDS011;63735;44.730;37.818;2023-05-10T00:42:33;0.98;;;0.68;;
75154;SDS011;63735;44.730;37.818;2023-05-10T00:44:59;0.85;;;0.55;;
75154;SDS011;63735;44.730;37.818;2023-05-10T00:47:26;2.15;;;0.50;;
75154;SDS011;63735;44.730;37.818;2023-05-10T00:49:52;1.48;;;0.57;;
75154;SDS011;63735;44.730;37.818;2023-05-10T00:52:18;0.50;;;0.30;;
75154;SDS011;63735;44.730;37.818;2023-05-10T00:54:46;0.73;;;0.45;;
75154;SDS011;63735;44.730;37.818;2023-05-10T00:57:12;1.27;;;0.40;;
75154;SDS011;63735;44.730;37.818;2023-05-10T00:59:38;0.60;;;0.45;;
75154;SDS011;63735;44.730;37.818;2023-05-10T01:02:05;1.15;;;0.50;;
75154;SDS011;63735;44.730;37.818;2023-05-10T01:04:31;2.08;;;0.82;;
75154;SDS011;63735;44.730;37.818;2023-05-10T01:06:58;2.58;;;1.02;;
75154;SDS011;63735;44.730;37.818;2023-05-10T01:09:24;1.30;;;1.20;;
75154;SDS011;63735;44.730;37.818;2023-05-10T01:11:51;4.05;;;1.30;;
75154;SDS011;63735;44.730;37.818;2023-05-10T01:14:18;2.63;;;1.40;;
75154;SDS011;63735;44.730;37.818;2023-05-10T01:16:45;1.95;;;1.15;;
75154;SDS011;63735;44.730;37.818;2023-05-10T01:19:19;2.53;;;1.67;;
75154;SDS011;63735;44.730;37.818;2023-05-10T01:37:58;0.90;;;0.30;;
75154;SDS011;63735;44.730;37.818;2023-05-10T01:40:54;0.45;;;0.20;;
75154;SDS011;63735;44.730;37.818;2023-05-10T01:43:28;0.80;;;0.40;;
75154;SDS011;63735;44.730;37.818;2023-05-10T01:46:02;1.55;;;0.77;;
75154;SDS011;63735;44.730;37.818;2023-05-10T01:48:40;1.23;;;0.90;;
75154;SDS011;63735;44.730;37.818;2023-05-10T01:51:13;1.90;;;1.00;;
75154;SDS011;63735;44.730;37.818;2023-05-10T01:53:42;1.35;;;0.80;;
75154;SDS011;63735;44.730;37.818;2023-05-10T01:56:10;2.22;;;0.50;;
75154;SDS011;63735;44.730;37.818;2023-05-10T01:58:38;0.60;;;0.50;;
75154;SDS011;63735;44.730;37.818;2023-05-10T02:01:06;10.43;;;1.35;;
75154;SDS011;63735;44.730;37.818;2023-05-10T02:03:33;3.65;;;0.95;;
75154;SDS011;63735;44.730;37.818;2023-05-10T02:06:02;9.27;;;1.13;;
75154;SDS011;63735;44.730;37.818;2023-05-10T02:08:30;1.08;;;0.82;;
75154;SDS011;63735;44.730;37.818;2023-05-10T02:10:57;5.25;;;0.75;;
75154;SDS011;63735;44.730;37.818;2023-05-10T02:13:25;2.40;;;0.60;;
75154;SDS011;63735;44.730;37.818;2023-05-10T02:18:19;0.30;;;0.30;;
75154;SDS011;63735;44.730;37.818;2023-05-10T02:20:47;0.75;;;0.52;;
75154;SDS011;63735;44.730;37.818;2023-05-10T02:23:14;0.20;;;0.20;;
75154;SDS011;63735;44.730;37.818;2023-05-10T02:25:43;0.47;;;0.22;;
75154;SDS011;63735;44.730;37.818;2023-05-10T02:28:10;0.38;;;0.38;;
75154;SDS011;63735;44.730;37.818;2023-05-10T02:30:38;0.90;;;0.47;;
75154;SDS011;63735;44.730;37.818;2023-05-10T02:33:04;0.80;;;0.55;;
75154;SDS011;63735;44.730;37.818;2023-05-10T02:35:31;0.30;;;0.30;;
75154;SDS011;63735;44.730;37.818;2023-05-10T02:37:58;0.45;;;0.40;;
75154;SDS011;63735;44.730;37.818;2023-05-10T02:40:26;0.50;;;0.50;;
75154;SDS011;63735;44.730;37.818;2023-05-10T02:42:55;1.38;;;0.40;;
75154;SDS011;63735;44.730;37.818;2023-05-10T02:45:23;0.22;;;0.22;;
75154;SDS011;63735;44.730;37.818;2023-05-10T02:47:53;0.30;;;0.30;;
75154;SDS011;63735;44.730;37.818;2023-05-10T02:50:19;0.20;;;0.20;;
75154;SDS011;63735;44.730;37.818;2023-05-10T02:52:49;2.13;;;0.52;;
75154;SDS011;63735;44.730;37.818;2023-05-10T02:55:20;0.82;;;0.30;;
75154;SDS011;63735;44.730;37.818;2023-05-10T02:58:00;0.25;;;0.25;;
75154;SDS011;63735;44.730;37.818;2023-05-10T03:00:27;0.20;;;0.20;;
75154;SDS011;63735;44.730;37.818;2023-05-10T03:02:53;0.20;;;0.20;;
75154;SDS011;63735;44.730;37.818;2023-05-10T03:05:20;1.60;;;0.30;;
75154;SDS011;63735;44.730;37.818;2023-05-10T03:07:46;0.40;;;0.40;;
75154;SDS011;63735;44.730;37.818;2023-05-10T03:10:13;0.55;;;0.22;;
75154;SDS011;63735;44.730;37.818;2023-05-10T03:18:10;0.40;;;0.40;;
75154;SDS011;63735;44.730;37.818;2023-05-10T03:20:42;0.40;;;0.40;;
75154;SDS011;63735;44.730;37.818;2023-05-10T03:25:47;3.70;;;0.35;;
75154;SDS011;63735;44.730;37.818;2023-05-10T03:28:15;0.70;;;0.50;;
75154;SDS011;63735;44.730;37.818;2023-05-10T03:30:43;4.75;;;0.30;;
75154;SDS011;63735;44.730;37.818;2023-05-10T03:33:11;0.95;;;0.40;;
75154;SDS011;63735;44.730;37.818;2023-05-10T03:35:41;0.60;;;0.50;;
75154;SDS011;63735;44.730;37.818;2023-05-10T03:38:09;1.25;;;0.65;;
75154;SDS011;63735;44.730;37.818;2023-05-10T03:40:35;0.55;;;0.50;;
75154;SDS011;63735;44.730;37.818;2023-05-10T03:43:01;0.68;;;0.40;;
75154;SDS011;63735;44.730;37.818;2023-05-10T03:45:27;2.38;;;0.57;;
75154;SDS011;63735;44.730;37.818;2023-05-10T03:47:53;0.75;;;0.70;;
75154;SDS011;63735;44.730;37.818;2023-05-10T03:50:19;0.95;;;0.70;;
75154;SDS011;63735;44.730;37.818;2023-05-10T03:52:46;1.58;;;0.60;;
75154;SDS011;63735;44.730;37.818;2023-05-10T03:55:13;0.40;;;0.40;;
75154;SDS011;63735;44.730;37.818;2023-05-10T03:57:38;1.65;;;0.70;;
75154;SDS011;63735;44.730;37.818;2023-05-10T04:00:06;1.02;;;0.50;;
75154;SDS011;63735;44.730;37.818;2023-05-10T04:02:39;1.42;;;0.80;;
75154;SDS011;63735;44.730;37.818;2023-05-10T04:05:08;1.13;;;0.50;;
75154;SDS011;63735;44.730;37.818;2023-05-10T04:07:34;1.08;;;0.77;;
75154;SDS011;63735;44.730;37.818;2023-05-10T04:10:02;1.85;;;0.85;;
75154;SDS011;63735;44.730;37.818;2023-05-10T04:12:28;1.00;;;0.80;;
75154;SDS011;63735;44.730;37.818;2023-05-10T04:14:54;1.10;;;0.70;;
75154;SDS011;63735;44.730;37.818;2023-05-10T04:17:20;0.47;;;0.43;;
75154;SDS011;63735;44.730;37.818;2023-05-10T04:19:46;1.85;;;0.77;;
75154;SDS011;63735;44.730;37.818;2023-05-10T04:22:12;1.60;;;1.02;;
75154;SDS011;63735;44.730;37.818;2023-05-10T04:24:37;0.88;;;0.70;;
75154;SDS011;63735;44.730;37.818;2023-05-10T04:27:03;1.40;;;0.90;;
75154;SDS011;63735;44.730;37.818;2023-05-10T04:29:29;2.10;;;0.80;;
75154;SDS011;63735;44.730;37.818;2023-05-10T04:31:55;1.48;;;1.08;;
75154;SDS011;63735;44.730;37.818;2023-05-10T04:34:21;0.90;;;0.80;;
75154;SDS011;63735;44.730;37.818;2023-05-10T04:36:47;1.30;;;1.20;;
75154;SDS011;63735;44.730;37.818;2023-05-10T04:39:13;1.30;;;1.10;;
75154;SDS011;63735;44.730;37.818;2023-05-10T04:41:39;1.58;;;1.35;;
75154;SDS011;63735;44.730;37.818;2023-05-10T04:44:05;1.52;;;1.40;;
75154;SDS011;63735;44.730;37.818;2023-05-10T04:46:31;1.42;;;1.10;;
75154;SDS011;63735;44.730;37.818;2023-05-10T04:48:57;1.10;;;1.00;;
75154;SDS011;63735;44.730;37.818;2023-05-10T04:51:23;2.50;;;1.20;;
75154;SDS011;63735;44.730;37.818;2023-05-10T04:53:49;1.63;;;1.42;;
75154;SDS011;63735;44.730;37.818;2023-05-10T04:56:15;2.72;;;1.50;;
75154;SDS011;63735;44.730;37.818;2023-05-10T04:58:41;2.50;;;1.80;;
75154;SDS011;63735;44.730;37.818;2023-05-10T05:01:07;2.95;;;1.60;;
75154;SDS011;63735;44.730;37.818;2023-05-10T05:03:33;2.65;;;2.30;;
75154;SDS011;63735;44.730;37.818;2023-05-10T05:05:59;2.05;;;1.60;;
75154;SDS011;63735;44.730;37.818;2023-05-10T05:08:25;5.00;;;1.05;;
75154;SDS011;63735;44.730;37.818;2023-05-10T05:10:51;2.38;;;1.20;;
75154;SDS011;63735;44.730;37.818;2023-05-10T05:13:17;2.10;;;1.50;;
75154;SDS011;63735;44.730;37.818;2023-05-10T05:15:43;4.80;;;1.50;;
75154;SDS011;63735;44.730;37.818;2023-05-10T05:18:09;1.70;;;0.90;;
75154;SDS011;63735;44.730;37.818;2023-05-10T05:20:35;1.98;;;1.10;;
75154;SDS011;63735;44.730;37.818;2023-05-10T05:23:01;1.63;;;1.00;;
75154;SDS011;63735;44.730;37.818;2023-05-10T05:25:27;1.52;;;1.20;;
75154;SDS011;63735;44.730;37.818;2023-05-10T05:27:53;1.40;;;1.30;;
75154;SDS011;63735;44.730;37.818;2023-05-10T05:30:19;2.05;;;1.20;;
75154;SDS011;63735;44.730;37.818;2023-05-10T05:32:45;1.40;;;1.27;;
75154;SDS011;63735;44.730;37.818;2023-05-10T05:35:12;1.42;;;1.20;;
75154;SDS011;63735;44.730;37.818;2023-05-10T05:37:38;1.58;;;1.48;;
75154;SDS011;63735;44.730;37.818;2023-05-10T05:40:05;2.08;;;1.50;;
75154;SDS011;63735;44.730;37.818;2023-05-10T05:42:31;1.70;;;1.58;;
75154;SDS011;63735;44.730;37.818;2023-05-10T05:44:57;2.35;;;1.10;;
75154;SDS011;63735;44.730;37.818;2023-05-10T05:47:23;1.75;;;1.17;;
75154;SDS011;63735;44.730;37.818;2023-05-10T05:49:49;1.58;;;0.90;;
75154;SDS011;63735;44.730;37.818;2023-05-10T05:52:15;1.02;;;0.93;;
75154;SDS011;63735;44.730;37.818;2023-05-10T05:54:41;1.17;;;0.90;;
75154;SDS011;63735;44.730;37.818;2023-05-10T05:57:07;0.93;;;0.90;;
75154;SDS011;63735;44.730;37.818;2023-05-10T05:59:33;2.17;;;1.08;;
75154;SDS011;63735;44.730;37.818;2023-05-10T06:01:58;1.13;;;0.80;;
75154;SDS011;63735;44.730;37.818;2023-05-10T06:04:25;1.45;;;1.05;;
75154;SDS011;63735;44.730;37.818;2023-05-10T06:06:51;4.90;;;1.00;;
75154;SDS011;63735;44.730;37.818;2023-05-10T06:09:17;1.08;;;0.90;;
75154;SDS011;63735;44.730;37.818;2023-05-10T06:11:43;1.27;;;0.80;;
75154;SDS011;63735;44.730;37.818;2023-05-10T06:14:10;2.35;;;1.05;;
75154;SDS011;63735;44.730;37.818;2023-05-10T06:16:36;2.78;;;0.90;;
75154;SDS011;63735;44.730;37.818;2023-05-10T06:19:02;1.30;;;0.88;;
75154;SDS011;63735;44.730;37.818;2023-05-10T06:21:28;1.83;;;1.00;;
75154;SDS011;63735;44.730;37.818;2023-05-10T06:23:55;1.35;;;0.90;;
75154;SDS011;63735;44.730;37.818;2023-05-10T06:26:21;1.83;;;0.90;;
75154;SDS011;63735;44.730;37.818;2023-05-10T06:28:47;2.80;;;1.00;;
75154;SDS011;63735;44.730;37.818;2023-05-10T06:31:13;1.13;;;1.02;;
75154;SDS011;63735;44.730;37.818;2023-05-10T06:33:39;1.60;;;1.08;;
75154;SDS011;63735;44.730;37.818;2023-05-10T06:36:05;1.08;;;0.80;;
75154;SDS011;63735;44.730;37.818;2023-05-10T06:38:31;2.05;;;1.20;;
75154;SDS011;63735;44.730;37.818;2023-05-10T06:40:57;5.90;;;1.38;;
75154;SDS011;63735;44.730;37.818;2023-05-10T06:43:23;1.83;;;0.73;;
75154;SDS011;63735;44.730;37.818;2023-05-10T06:45:50;1.23;;;1.02;;
75154;SDS011;63735;44.730;37.818;2023-05-10T06:48:15;0.70;;;0.70;;
75154;SDS011;63735;44.730;37.818;2023-05-10T06:50:42;1.23;;;0.88;;
75154;SDS011;63735;44.730;37.818;2023-05-10T06:53:07;0.75;;;0.70;;
75154;SDS011;63735;44.730;37.818;2023-05-10T06:55:33;1.13;;;0.65;;
75154;SDS011;63735;44.730;37.818;2023-05-10T06:57:59;0.82;;;0.70;;
75154;SDS011;63735;44.730;37.818;2023-05-10T07:00:25;0.93;;;0.82;;
75154;SDS011;63735;44.730;37.818;2023-05-10T07:02:51;2.50;;;0.90;;
75154;SDS011;63735;44.730;37.818;2023-05-10T07:05:17;1.73;;;0.63;;
75154;SDS011;63735;44.730;37.818;2023-05-10T07:07:43;0.73;;;0.63;;
75154;SDS011;63735;44.730;37.818;2023-05-10T07:10:09;2.10;;;0.90;;
75154;SDS011;63735;44.730;37.818;2023-05-10T07:12:35;2.20;;;0.77;;
75154;SDS011;63735;44.730;37.818;2023-05-10T07:15:01;1.70;;;0.70;;
75154;SDS011;63735;44.730;37.818;2023-05-10T07:17:28;1.65;;;0.90;;
75154;SDS011;63735;44.730;37.818;2023-05-10T07:19:54;0.80;;;0.70;;
75154;SDS011;63735;44.730;37.818;2023-05-10T07:22:19;1.65;;;0.82;;
75154;SDS011;63735;44.730;37.818;2023-05-10T07:24:45;1.42;;;0.70;;
75154;SDS011;63735;44.730;37.818;2023-05-10T07:27:11;2.97;;;0.90;;
75154;SDS011;63735;44.730;37.818;2023-05-10T07:29:38;1.05;;;0.75;;
75154;SDS011;63735;44.730;37.818;2023-05-10T07:32:04;1.40;;;0.70;;
75154;SDS011;63735;44.730;37.818;2023-05-10T07:34:31;0.98;;;0.73;;
75154;SDS011;63735;44.730;37.818;2023-05-10T07:36:59;0.68;;;0.60;;
75154;SDS011;63735;44.730;37.818;2023-05-10T07:39:28;0.98;;;0.60;;
75154;SDS011;63735;44.730;37.818;2023-05-10T07:41:55;1.20;;;0.70;;
75154;SDS011;63735;44.730;37.818;2023-05-10T07:44:21;1.95;;;0.80;;
75154;SDS011;63735;44.730;37.818;2023-05-10T07:46:48;2.53;;;0.75;;
75154;SDS011;63735;44.730;37.818;2023-05-10T07:49:14;0.80;;;0.70;;
75154;SDS011;63735;44.730;37.818;2023-05-10T07:51:40;4.50;;;1.15;;
75154;SDS011;63735;44.730;37.818;2023-05-10T07:54:06;2.03;;;0.63;;
75154;SDS011;63735;44.730;37.818;2023-05-10T07:56:32;1.23;;;0.80;;
75154;SDS011;63735;44.730;37.818;2023-05-10T07:58:59;0.65;;;0.60;;
75154;SDS011;63735;44.730;37.818;2023-05-10T08:01:26;1.65;;;0.70;;
75154;SDS011;63735;44.730;37.818;2023-05-10T08:03:57;1.35;;;0.63;;
75154;SDS011;63735;44.730;37.818;2023-05-10T08:06:23;4.22;;;0.70;;
75154;SDS011;63735;44.730;37.818;2023-05-10T08:08:49;1.63;;;0.70;;
75154;SDS011;63735;44.730;37.818;2023-05-10T08:11:18;3.50;;;1.00;;
75154;SDS011;63735;44.730;37.818;2023-05-10T08:13:46;2.22;;;0.60;;
75154;SDS011;63735;44.730;37.818;2023-05-10T08:16:12;0.60;;;0.52;;
75154;SDS011;63735;44.730;37.818;2023-05-10T08:18:39;0.90;;;0.52;;
75154;SDS011;63735;44.730;37.818;2023-05-10T08:21:05;2.90;;;0.85;;
75154;SDS011;63735;44.730;37.818;2023-05-10T08:23:31;2.30;;;0.65;;
75154;SDS011;63735;44.730;37.818;2023-05-10T08:25:57;0.90;;;0.68;;
75154;SDS011;63735;44.730;37.818;2023-05-10T08:28:24;7.15;;;1.58;;
75154;SDS011;63735;44.730;37.818;2023-05-10T08:30:50;0.73;;;0.63;;
75154;SDS011;63735;44.730;37.818;2023-05-10T08:33:17;2.35;;;0.60;;
75154;SDS011;63735;44.730;37.818;2023-05-10T08:38:09;1.48;;;0.65;;
75154;SDS011;63735;44.730;37.818;2023-05-10T08:40:36;2.65;;;0.70;;
75154;SDS011;63735;44.730;37.818;2023-05-10T08:43:04;1.77;;;0.70;;
75154;SDS011;63735;44.730;37.818;2023-05-10T08:45:38;0.60;;;0.50;;
75154;SDS011;63735;44.730;37.818;2023-05-10T08:48:05;0.93;;;0.82;;
75154;SDS011;63735;44.730;37.818;2023-05-10T08:50:36;0.93;;;0.70;;
75154;SDS011;63735;44.730;37.818;2023-05-10T08:53:10;0.88;;;0.63;;
75154;SDS011;63735;44.730;37.818;2023-05-10T08:55:37;1.80;;;0.90;;
75154;SDS011;63735;44.730;37.818;2023-05-10T09:00:31;2.03;;;0.90;;
75154;SDS011;63735;44.730;37.818;2023-05-10T09:02:58;3.20;;;1.70;;
75154;SDS011;63735;44.730;37.818;2023-05-10T09:05:25;1.83;;;0.88;;
75154;SDS011;63735;44.730;37.818;2023-05-10T09:07:51;4.85;;;0.80;;
75154;SDS011;63735;44.730;37.818;2023-05-10T09:10:18;4.10;;;0.90;;
75154;SDS011;63735;44.730;37.818;2023-05-10T09:12:45;4.35;;;1.08;;
75154;SDS011;63735;44.730;37.818;2023-05-10T09:15:12;1.45;;;0.90;;
75154;SDS011;63735;44.730;37.818;2023-05-10T09:17:41;1.13;;;0.90;;
75154;SDS011;63735;44.730;37.818;2023-05-10T09:20:09;2.10;;;0.90;;
75154;SDS011;63735;44.730;37.818;2023-05-10T09:22:35;5.55;;;1.30;;
75154;SDS011;63735;44.730;37.818;2023-05-10T09:25:08;1.08;;;0.93;;
75154;SDS011;63735;44.730;37.818;2023-05-10T09:27:39;2.05;;;1.08;;
75154;SDS011;63735;44.730;37.818;2023-05-10T09:30:07;1.48;;;1.20;;
75154;SDS011;63735;44.730;37.818;2023-05-10T09:32:42;1.25;;;1.05;;
75154;SDS011;63735;44.730;37.818;2023-05-10T09:37:35;1.67;;;1.05;;
75154;SDS011;63735;44.730;37.818;2023-05-10T09:40:04;2.42;;;0.80;;
75154;SDS011;63735;44.730;37.818;2023-05-10T09:42:31;3.83;;;1.10;;
75154;SDS011;63735;44.730;37.818;2023-05-10T09:45:04;3.28;;;1.05;;
75154;SDS011;63735;44.730;37.818;2023-05-10T09:47:34;4.00;;;1.38;;
75154;SDS011;63735;44.730;37.818;2023-05-10T09:50:00;1.65;;;1.20;;
75154;SDS011;63735;44.730;37.818;2023-05-10T09:52:28;5.40;;;1.30;;
75154;SDS011;63735;44.730;37.818;2023-05-10T09:54:55;3.20;;;1.10;;
75154;SDS011;63735;44.730;37.818;2023-05-10T09:57:22;2.67;;;1.25;;
75154;SDS011;63735;44.730;37.818;2023-05-10T10:02:16;3.45;;;0.88;;
75154;SDS011;63735;44.730;37.818;2023-05-10T10:04:42;3.55;;;1.20;;
75154;SDS011;63735;44.730;37.818;2023-05-10T10:07:08;2.17;;;1.27;;
75154;SDS011;63735;44.730;37.818;2023-05-10T10:09:34;2.50;;;1.23;;
75154;SDS011;63735;44.730;37.818;2023-05-10T10:12:01;1.95;;;1.08;;
75154;SDS011;63735;44.730;37.818;2023-05-10T10:14:30;1.50;;;1.10;;
75154;SDS011;63735;44.730;37.818;2023-05-10T10:16:57;2.10;;;1.00;;
75154;SDS011;63735;44.730;37.818;2023-05-10T10:19:26;6.32;;;1.40;;
75154;SDS011;63735;44.730;37.818;2023-05-10T10:21:52;2.70;;;1.40;;
75154;SDS011;63735;44.730;37.818;2023-05-10T10:24:18;5.32;;;1.55;;
75154;SDS011;63735;44.730;37.818;2023-05-10T10:26:44;2.00;;;1.20;;
75154;SDS011;63735;44.730;37.818;2023-05-10T10:29:17;3.17;;;1.33;;
75154;SDS011;63735;44.730;37.818;2023-05-10T10:31:46;1.70;;;1.40;;
75154;SDS011;63735;44.730;37.818;2023-05-10T10:34:25;2.70;;;1.00;;
75154;SDS011;63735;44.730;37.818;2023-05-10T10:36:55;11.30;;;1.60;;
75154;SDS011;63735;44.730;37.818;2023-05-10T10:41:51;4.82;;;1.45;;
75154;SDS011;63735;44.730;37.818;2023-05-10T10:47:20;1.50;;;0.85;;
75154;SDS011;63735;44.730;37.818;2023-05-10T10:52:41;1.98;;;1.13;;
75154;SDS011;63735;44.730;37.818;2023-05-10T11:05:49;2.95;;;1.23;;
75154;SDS011;63735;44.730;37.818;2023-05-10T11:08:27;3.72;;;1.35;;
75154;SDS011;63735;44.730;37.818;2023-05-10T11:13:28;1.40;;;0.90;;
75154;SDS011;63735;44.730;37.818;2023-05-10T11:15:57;1.80;;;1.00;;
75154;SDS011;63735;44.730;37.818;2023-05-10T11:18:28;2.67;;;1.00;;
75154;SDS011;63735;44.730;37.818;2023-05-10T11:20:56;4.28;;;1.58;;
75154;SDS011;63735;44.730;37.818;2023-05-10T11:24:12;2.97;;;1.60;;
75154;SDS011;63735;44.730;37.818;2023-05-10T11:26:21;5.28;;;1.40;;
75154;SDS011;63735;44.730;37.818;2023-05-10T11:28:51;2.78;;;1.50;;
75154;SDS011;63735;44.730;37.818;2023-05-10T11:31:18;3.53;;;1.52;;
75154;SDS011;63735;44.730;37.818;2023-05-10T11:33:45;5.75;;;2.00;;
75154;SDS011;63735;44.730;37.818;2023-05-10T11:36:16;2.15;;;1.90;;
75154;SDS011;63735;44.730;37.818;2023-05-10T11:38:43;2.38;;;1.75;;
75154;SDS011;63735;44.730;37.818;2023-05-10T11:41:10;3.80;;;1.70;;
75154;SDS011;63735;44.730;37.818;2023-05-10T11:43:39;3.05;;;1.63;;
75154;SDS011;63735;44.730;37.818;2023-05-10T11:46:15;6.93;;;2.05;;
75154;SDS011;63735;44.730;37.818;2023-05-10T11:48:42;5.60;;;2.00;;
75154;SDS011;63735;44.730;37.818;2023-05-10T11:51:08;4.72;;;1.58;;
75154;SDS011;63735;44.730;37.818;2023-05-10T11:53:35;3.38;;;1.60;;
75154;SDS011;63735;44.730;37.818;2023-05-10T11:56:08;3.03;;;2.03;;
75154;SDS011;63735;44.730;37.818;2023-05-10T11:58:36;2.35;;;1.80;;
75154;SDS011;63735;44.730;37.818;2023-05-10T12:01:03;3.03;;;2.13;;
75154;SDS011;63735;44.730;37.818;2023-05-10T12:03:30;2.17;;;1.70;;
75154;SDS011;63735;44.730;37.818;2023-05-10T12:05:57;3.05;;;1.80;;
75154;SDS011;63735;44.730;37.818;2023-05-10T12:08:24;5.15;;;1.40;;
75154;SDS011;63735;44.730;37.818;2023-05-10T12:10:52;1.63;;;1.33;;
75154;SDS011;63735;44.730;37.818;2023-05-10T12:13:29;3.22;;;1.85;;
75154;SDS011;63735;44.730;37.818;2023-05-10T12:15:57;3.10;;;2.20;;
75154;SDS011;63735;44.730;37.818;2023-05-10T12:18:23;3.60;;;2.13;;
75154;SDS011;63735;44.730;37.818;2023-05-10T12:20:53;3.30;;;1.67;;
75154;SDS011;63735;44.730;37.818;2023-05-10T12:23:19;5.53;;;1.77;;
75154;SDS011;63735;44.730;37.818;2023-05-10T12:25:46;2.95;;;1.52;;
75154;SDS011;63735;44.730;37.818;2023-05-10T12:28:12;2.03;;;1.55;;
75154;SDS011;63735;44.730;37.818;2023-05-10T12:30:38;3.00;;;1.67;;
75154;SDS011;63735;44.730;37.818;2023-05-10T12:33:11;6.32;;;1.65;;
75154;SDS011;63735;44.730;37.818;2023-05-10T12:35:48;5.68;;;1.90;;
75154;SDS011;63735;44.730;37.818;2023-05-10T12:38:51;2.15;;;1.75;;
75154;SDS011;63735;44.730;37.818;2023-05-10T12:41:14;2.47;;;1.73;;
75154;SDS011;63735;44.730;37.818;2023-05-10T12:43:41;2.53;;;1.85;;
75154;SDS011;63735;44.730;37.818;2023-05-10T12:46:08;3.88;;;2.03;;
75154;SDS011;63735;44.730;37.818;2023-05-10T12:48:39;2.08;;;1.70;;
75154;SDS011;63735;44.730;37.818;2023-05-10T12:51:06;2.42;;;1.85;;
75154;SDS011;63735;44.730;37.818;2023-05-10T12:53:37;3.47;;;1.80;;
75154;SDS011;63735;44.730;37.818;2023-05-10T12:56:06;4.53;;;2.00;;
75154;SDS011;63735;44.730;37.818;2023-05-10T12:58:33;1.98;;;1.50;;
75154;SDS011;63735;44.730;37.818;2023-05-10T13:03:26;2.83;;;1.60;;
75154;SDS011;63735;44.730;37.818;2023-05-10T13:05:52;5.60;;;1.80;;
75154;SDS011;63735;44.730;37.818;2023-05-10T13:08:18;1.80;;;1.23;;
75154;SDS011;63735;44.730;37.818;2023-05-10T13:10:44;2.20;;;1.58;;
75154;SDS011;63735;44.730;37.818;2023-05-10T13:13:09;1.77;;;1.40;;
75154;SDS011;63735;44.730;37.818;2023-05-10T13:15:35;4.28;;;1.50;;
75154;SDS011;63735;44.730;37.818;2023-05-10T13:18:01;3.45;;;2.08;;
75154;SDS011;63735;44.730;37.818;2023-05-10T13:20:27;3.15;;;1.50;;
75154;SDS011;63735;44.730;37.818;2023-05-10T13:22:53;3.22;;;1.58;;
75154;SDS011;63735;44.730;37.818;2023-05-10T13:25:21;1.73;;;1.30;;
75154;SDS011;63735;44.730;37.818;2023-05-10T13:27:47;2.15;;;1.63;;
75154;SDS011;63735;44.730;37.818;2023-05-10T13:30:13;3.38;;;1.63;;
75154;SDS011;63735;44.730;37.818;2023-05-10T13:32:38;3.83;;;1.50;;
75154;SDS011;63735;44.730;37.818;2023-05-10T13:35:05;2.33;;;1.45;;
75154;SDS011;63735;44.730;37.818;2023-05-10T13:37:31;3.40;;;1.73;;
75154;SDS011;63735;44.730;37.818;2023-05-10T13:40:00;1.63;;;1.40;;
75154;SDS011;63735;44.730;37.818;2023-05-10T13:42:27;2.65;;;2.17;;
75154;SDS011;63735;44.730;37.818;2023-05-10T13:44:53;1.85;;;1.63;;
75154;SDS011;63735;44.730;37.818;2023-05-10T13:47:19;2.88;;;1.50;;
75154;SDS011;63735;44.730;37.818;2023-05-10T13:49:46;3.08;;;1.40;;
75154;SDS011;63735;44.730;37.818;2023-05-10T13:52:12;1.88;;;1.30;;
75154;SDS011;63735;44.730;37.818;2023-05-10T13:54:39;3.85;;;1.50;;
75154;SDS011;63735;44.730;37.818;2023-05-10T13:57:05;5.75;;;1.40;;
75154;SDS011;63735;44.730;37.818;2023-05-10T13:59:31;2.20;;;1.50;;
75154;SDS011;63735;44.730;37.818;2023-05-10T14:01:57;10.13;;;1.40;;
75154;SDS011;63735;44.730;37.818;2023-05-10T14:04:24;3.28;;;1.42;;
75154;SDS011;63735;44.730;37.818;2023-05-10T14:06:50;3.83;;;1.50;;
75154;SDS011;63735;44.730;37.818;2023-05-10T14:09:18;2.00;;;1.60;;
75154;SDS011;63735;44.730;37.818;2023-05-10T14:11:44;6.05;;;1.80;;
75154;SDS011;63735;44.730;37.818;2023-05-10T14:14:11;3.15;;;1.65;;
75154;SDS011;63735;44.730;37.818;2023-05-10T14:16:41;3.95;;;1.73;;
75154;SDS011;63735;44.730;37.818;2023-05-10T14:19:10;3.65;;;1.80;;
75154;SDS011;63735;44.730;37.818;2023-05-10T14:21:36;5.68;;;1.90;;
75154;SDS011;63735;44.730;37.818;2023-05-10T14:24:02;1.73;;;1.20;;
75154;SDS011;63735;44.730;37.818;2023-05-10T14:26:29;1.70;;;1.60;;
75154;SDS011;63735;44.730;37.818;2023-05-10T14:28:56;2.47;;;1.50;;
75154;SDS011;63735;44.730;37.818;2023-05-10T14:31:22;3.90;;;1.70;;
75154;SDS011;63735;44.730;37.818;2023-05-10T14:33:50;2.92;;;1.58;;
75154;SDS011;63735;44.730;37.818;2023-05-10T14:36:17;2.20;;;1.67;;
75154;SDS011;63735;44.730;37.818;2023-05-10T14:38:43;3.50;;;1.60;;
75154;SDS011;63735;44.730;37.818;2023-05-10T14:41:09;1.95;;;1.60;;
75154;SDS011;63735;44.730;37.818;2023-05-10T14:43:39;2.10;;;1.70;;
75154;SDS011;63735;44.730;37.818;2023-05-10T14:46:05;3.53;;;1.88;;
75154;SDS011;63735;44.730;37.818;2023-05-10T14:48:32;2.95;;;1.80;;
75154;SDS011;63735;44.730;37.818;2023-05-10T14:50:58;4.20;;;1.88;;
75154;SDS011;63735;44.730;37.818;2023-05-10T14:53:23;3.42;;;2.05;;
75154;SDS011;63735;44.730;37.818;2023-05-10T14:55:49;2.72;;;1.77;;
75154;SDS011;63735;44.730;37.818;2023-05-10T14:58:15;1.70;;;1.60;;
75154;SDS011;63735;44.730;37.818;2023-05-10T15:00:41;4.57;;;1.67;;
75154;SDS011;63735;44.730;37.818;2023-05-10T15:03:08;2.28;;;1.60;;
75154;SDS011;63735;44.730;37.818;2023-05-10T15:05:34;4.45;;;1.70;;
75154;SDS011;63735;44.730;37.818;2023-05-10T15:08:02;2.63;;;1.50;;
75154;SDS011;63735;44.730;37.818;2023-05-10T15:10:29;2.30;;;1.77;;
75154;SDS011;63735;44.730;37.818;2023-05-10T15:12:55;3.53;;;2.08;;
75154;SDS011;63735;44.730;37.818;2023-05-10T15:15:21;2.42;;;1.48;;
75154;SDS011;63735;44.730;37.818;2023-05-10T15:17:47;3.80;;;1.60;;
75154;SDS011;63735;44.730;37.818;2023-05-10T15:20:13;2.63;;;1.20;;
75154;SDS011;63735;44.730;37.818;2023-05-10T15:22:39;1.70;;;1.60;;
75154;SDS011;63735;44.730;37.818;2023-05-10T15:25:06;1.50;;;1.27;;
75154;SDS011;63735;44.730;37.818;2023-05-10T15:27:32;2.30;;;1.52;;
75154;SDS011;63735;44.730;37.818;2023-05-10T15:29:58;1.35;;;1.25;;
75154;SDS011;63735;44.730;37.818;2023-05-10T15:32:24;3.13;;;1.35;;
75154;SDS011;63735;44.730;37.818;2023-05-10T15:34:50;2.63;;;1.70;;